In Rescue
 
Wind Gusting 00 knots
06
October 19, 2019 1:00 PM EDT
Weather Information
Wind Direction
  180 °
Wind Speed
  06 kt (7 mph)
Wind Gust
  00 kt (0 mph)
Altimeter
29.97 in
Visibility
10 SM
Temperature
13° C
55° F
Dewpoint
07° C
45° F
Humidity
67%
1hr Rain Fall
00.00 in.
24hr Rain Fall
00.00 in.
Sky Condition
Clear
VFR

METAR KONZ 191700Z AUTO 18006KT 10SM CLR 13/07 A2997 RMK AO2 T01260071

FAA Disclaimer: The data displayed is for advisory purposes only and is not to be used for flight planning or operations.